Time;durP1;ratioP1;P1;durP2;ratioP2;P2;SDS_P1;SDS_P2;PMS_P1;PMS_P2;Temp;Humidity;BMP_temperature;BMP_pressure;BME280_temperature;BME280_humidity;BME280_pressure;Samples;Min_cycle;Max_cycle;Signal;HPM_P1;HPM_P2
2023/04/17 00:02:24;;;;;;;17.10;10.80;;;10.10;99.90;;;;;;5130680;28;20391;-77
2023/04/17 00:04:51;;;;;;;17.95;11.25;;;10.20;99.90;;;;;;5131255;28;20038;-74
2023/04/17 00:07:21;;;;;;;16.98;10.85;;;10.20;99.90;;;;;;5131313;28;20162;-75
2023/04/17 00:09:49;;;;;;;16.52;10.68;;;10.20;99.90;;;;;;5130936;28;20023;-75
2023/04/17 00:12:15;;;;;;;19.85;10.95;;;10.30;99.90;;;;;;5131321;28;20045;-75
2023/04/17 00:14:41;;;;;;;15.85;10.20;;;10.30;99.90;;;;;;5130745;28;20035;-75
2023/04/17 00:17:06;;;;;;;18.23;10.65;;;10.40;99.90;;;;;;5131247;28;20050;-74
2023/04/17 00:19:32;;;;;;;14.55;9.98;;;10.40;99.90;;;;;;5130693;28;20023;-75
2023/04/17 00:21:58;;;;;;;15.13;9.80;;;10.30;99.90;;;;;;5112617;28;20023;-73
2023/04/17 00:24:24;;;;;;;15.13;9.88;;;10.40;99.90;;;;;;5130592;27;20138;-76
2023/04/17 00:26:50;;;;;;;14.10;8.60;;;10.40;99.90;;;;;;5131267;28;20027;-73
2023/04/17 00:29:15;;;;;;;12.73;9.00;;;10.40;99.90;;;;;;5130775;28;20034;-74
2023/04/17 00:31:42;;;;;;;13.52;8.57;;;10.50;99.90;;;;;;5130605;28;20027;-74
2023/04/17 00:34:08;;;;;;;12.85;9.07;;;10.50;99.90;;;;;;5131089;28;20035;-74
2023/04/17 00:36:34;;;;;;;11.32;7.65;;;10.50;99.90;;;;;;5130412;28;20455;-74
2023/04/17 00:39:00;;;;;;;11.80;8.00;;;10.50;99.90;;;;;;5130909;28;20031;-74
2023/04/17 00:41:25;;;;;;;13.38;8.20;;;10.60;99.90;;;;;;5130631;28;20023;-78
2023/04/17 00:43:51;;;;;;;13.80;8.02;;;10.60;99.90;;;;;;5132410;27;20353;-73
2023/04/17 00:46:17;;;;;;;12.52;8.50;;;10.60;99.90;;;;;;5134635;27;20380;-75
2023/04/17 00:48:43;;;;;;;9.40;7.47;;;10.70;99.90;;;;;;5133938;27;20179;-75
2023/04/17 00:51:09;;;;;;;13.05;8.48;;;10.70;99.90;;;;;;5134532;27;20332;-75
2023/04/17 00:53:35;;;;;;;10.77;7.90;;;10.70;99.90;;;;;;5134025;27;20050;-75
2023/04/17 00:56:05;;;;;;;13.20;7.78;;;10.80;99.90;;;;;;5134793;27;20108;-75
2023/04/17 00:58:32;;;;;;;12.10;7.68;;;10.80;99.90;;;;;;5137108;27;20113;-74
2023/04/17 01:00:58;;;;;;;10.25;7.25;;;10.80;99.90;;;;;;5138018;27;20027;-74
2023/04/17 01:03:24;;;;;;;9.68;7.20;;;10.90;99.90;;;;;;5135531;27;20436;-74
2023/04/17 01:05:51;;;;;;;11.32;7.05;;;10.90;99.90;;;;;;5136256;27;20035;-73
2023/04/17 01:08:21;;;;;;;12.60;7.90;;;11.00;99.90;;;;;;5119435;27;20023;-73
2023/04/17 01:10:46;;;;;;;10.10;7.28;;;11.00;99.90;;;;;;5116107;27;20031;-74
2023/04/17 01:13:12;;;;;;;9.80;6.78;;;10.90;99.90;;;;;;5135315;27;20030;-74
2023/04/17 01:15:38;;;;;;;13.55;7.60;;;11.00;99.90;;;;;;5133820;27;20552;-75
2023/04/17 01:18:04;;;;;;;10.13;6.97;;;11.00;99.90;;;;;;5134456;27;20019;-75
2023/04/17 01:20:31;;;;;;;9.23;6.85;;;11.00;99.90;;;;;;5133577;27;20038;-75
2023/04/17 01:23:00;;;;;;;9.63;6.82;;;11.00;99.90;;;;;;5134012;27;20027;-72
2023/04/17 01:25:27;;;;;;;9.07;6.40;;;11.00;99.90;;;;;;5134146;27;20058;-74
2023/04/17 01:27:53;;;;;;;9.63;6.47;;;11.00;99.90;;;;;;5133784;27;20106;-74
2023/04/17 01:30:19;;;;;;;9.57;6.47;;;11.00;99.90;;;;;;5133685;27;20141;-74
2023/04/17 01:32:44;;;;;;;6.97;5.72;;;11.00;99.90;;;;;;5133343;27;20046;-74
2023/04/17 01:35:10;;;;;;;7.00;5.60;;;11.00;99.90;;;;;;5133770;27;20024;-74
2023/04/17 01:37:36;;;;;;;7.97;5.38;;;11.10;99.90;;;;;;5133592;27;20030;-74
2023/04/17 01:40:05;;;;;;;8.50;5.22;;;11.10;99.90;;;;;;5134012;27;20506;-74
2023/04/17 01:42:34;;;;;;;8.27;5.07;;;11.20;99.90;;;;;;5114755;27;20496;-75
2023/04/17 01:45:00;;;;;;;10.27;4.97;;;11.20;99.90;;;;;;5115844;27;20109;-75
2023/04/17 01:47:25;;;;;;;8.77;5.55;;;11.20;99.90;;;;;;5133638;27;20516;-73
2023/04/17 01:49:51;;;;;;;9.30;5.78;;;11.20;99.90;;;;;;5132955;27;20023;-74
2023/04/17 01:52:17;;;;;;;7.13;5.22;;;11.30;99.90;;;;;;5134302;27;20099;-74
2023/04/17 01:54:42;;;;;;;8.45;4.82;;;11.30;99.90;;;;;;5132257;27;20035;-74
2023/04/17 01:57:08;;;;;;;6.68;4.63;;;11.30;99.90;;;;;;5133789;27;20027;-74
2023/04/17 01:59:34;;;;;;;6.57;4.13;;;11.30;99.90;;;;;;5133250;27;20027;-74
2023/04/17 02:01:59;;;;;;;4.82;4.10;;;11.30;99.90;;;;;;5115016;27;20019;-73
2023/04/17 02:04:25;;;;;;;7.93;4.60;;;11.30;99.90;;;;;;5132937;27;20088;-74
2023/04/17 02:06:51;;;;;;;5.90;4.65;;;11.30;99.90;;;;;;5132412;27;20254;-74
2023/04/17 02:09:17;;;;;;;6.30;4.90;;;11.30;99.90;;;;;;5133056;27;20023;-73
2023/04/17 02:11:43;;;;;;;6.53;4.53;;;11.40;99.90;;;;;;5132574;27;20360;-74
2023/04/17 02:14:09;;;;;;;6.43;4.53;;;11.40;99.90;;;;;;5132957;27;20027;-74
2023/04/17 02:16:36;;;;;;;9.77;5.18;;;11.40;99.90;;;;;;5132140;27;20506;-75
2023/04/17 02:19:02;;;;;;;6.97;4.90;;;11.30;99.90;;;;;;5133031;27;20026;-75
2023/04/17 02:21:28;;;;;;;6.75;4.22;;;11.40;99.90;;;;;;5132641;27;20027;-74
2023/04/17 02:23:53;;;;;;;6.78;4.25;;;11.40;99.90;;;;;;5132400;27;20050;-74
2023/04/17 02:26:19;;;;;;;7.18;4.43;;;11.40;99.90;;;;;;5132911;27;20460;-74
2023/04/17 02:28:45;;;;;;;6.65;4.60;;;11.40;99.90;;;;;;5132217;27;20023;-74
2023/04/17 02:31:12;;;;;;;8.75;4.75;;;11.50;99.90;;;;;;5132740;27;20024;-74
2023/04/17 02:33:38;;;;;;;5.47;4.20;;;11.50;99.90;;;;;;5131874;27;20113;-75
2023/04/17 02:36:08;;;;;;;6.80;4.25;;;11.50;99.90;;;;;;5132252;27;20514;-74
2023/04/17 02:38:33;;;;;;;5.97;4.15;;;11.40;99.90;;;;;;5131747;27;20030;-76
2023/04/17 02:40:59;;;;;;;5.50;3.97;;;11.50;99.90;;;;;;5132130;27;20023;-74
2023/04/17 02:43:25;;;;;;;4.72;3.90;;;11.50;99.90;;;;;;5132323;27;20464;-75
2023/04/17 02:45:51;;;;;;;8.30;4.22;;;11.50;99.90;;;;;;5131644;27;20486;-74
2023/04/17 02:48:17;;;;;;;6.85;3.70;;;11.50;99.90;;;;;;5132702;27;20023;-74
2023/04/17 02:50:43;;;;;;;7.68;4.88;;;11.50;99.90;;;;;;5132048;27;20057;-75
2023/04/17 02:53:08;;;;;;;8.63;4.75;;;11.50;99.90;;;;;;5132302;27;20052;-74
2023/04/17 02:55:35;;;;;;;6.97;4.45;;;11.50;99.90;;;;;;5132234;27;20027;-77
2023/04/17 02:58:00;;;;;;;5.95;4.85;;;11.50;99.90;;;;;;5132206;27;20023;-74
2023/04/17 03:00:27;;;;;;;12.88;8.00;;;11.50;99.90;;;;;;5131858;27;20079;-73
2023/04/17 03:02:53;;;;;;;12.75;10.52;;;11.60;99.90;;;;;;5131978;27;20041;-73
2023/04/17 03:05:22;;;;;;;21.23;19.30;;;11.50;99.90;;;;;;5131887;27;20031;-73
2023/04/17 03:07:51;;;;;;;17.05;14.70;;;11.60;99.90;;;;;;5112002;27;20034;-74
2023/04/17 03:10:17;;;;;;;19.30;17.17;;;11.50;99.90;;;;;;5131897;27;20023;-75
2023/04/17 03:12:43;;;;;;;15.68;14.18;;;11.50;99.90;;;;;;5131486;27;20027;-74
2023/04/17 03:15:09;;;;;;;17.05;15.10;;;11.60;99.90;;;;;;5132052;27;20371;-75
2023/04/17 03:17:35;;;;;;;19.85;17.80;;;11.60;99.90;;;;;;5132109;27;20035;-77
2023/04/17 03:20:01;;;;;;;13.82;12.52;;;11.60;99.90;;;;;;5131606;27;20106;-74
2023/04/17 03:22:26;;;;;;;17.20;13.65;;;11.60;99.90;;;;;;5132158;27;20027;-74
2023/04/17 03:24:52;;;;;;;15.00;13.50;;;11.60;99.90;;;;;;5131119;27;20043;-75
2023/04/17 03:27:23;;;;;;;17.02;15.40;;;11.60;99.90;;;;;;5131718;27;20019;-74
2023/04/17 03:29:53;;;;;;;22.33;19.98;;;11.60;99.90;;;;;;5131257;27;20051;-75
2023/04/17 03:32:19;;;;;;;16.65;14.95;;;11.70;99.90;;;;;;5131996;27;20019;-74
2023/04/17 03:34:45;;;;;;;16.67;14.85;;;11.60;99.90;;;;;;5131585;27;20031;-74
2023/04/17 03:37:10;;;;;;;15.20;13.70;;;11.60;99.90;;;;;;5131550;27;20077;-74
2023/04/17 03:39:36;;;;;;;17.35;15.48;;;11.60;99.90;;;;;;5131081;27;20380;-77
2023/04/17 03:42:02;;;;;;;11.25;10.13;;;11.60;99.90;;;;;;5131587;27;20195;-75
2023/04/17 03:44:27;;;;;;;7.40;6.43;;;11.60;99.90;;;;;;5113009;27;20192;-75
2023/04/17 03:46:53;;;;;;;8.90;6.78;;;11.60;99.90;;;;;;5130902;27;20520;-75
2023/04/17 03:49:19;;;;;;;8.63;6.60;;;11.60;99.90;;;;;;5131356;28;20329;-74
2023/04/17 03:51:44;;;;;;;9.10;6.35;;;11.60;99.90;;;;;;5130583;28;20030;-75
2023/04/17 03:54:10;;;;;;;8.88;5.50;;;11.60;99.90;;;;;;5131381;28;20106;-74
2023/04/17 03:56:36;;;;;;;11.48;6.03;;;11.60;99.90;;;;;;5131114;28;20027;-74
2023/04/17 03:59:04;;;;;;;6.07;4.82;;;11.60;99.90;;;;;;5130904;28;20093;-75
2023/04/17 04:01:31;;;;;;;8.90;5.35;;;11.60;99.90;;;;;;5131650;28;20035;-75
2023/04/17 04:03:58;;;;;;;9.25;5.40;;;11.60;99.90;;;;;;5130820;28;20055;-75
2023/04/17 04:06:23;;;;;;;6.35;5.68;;;11.60;99.90;;;;;;5131297;28;20055;-75
2023/04/17 04:08:49;;;;;;;9.30;5.43;;;11.60;99.90;;;;;;5130829;28;20046;-73
2023/04/17 04:11:15;;;;;;;7.40;5.18;;;11.60;99.90;;;;;;5131382;28;20070;-73
2023/04/17 04:13:41;;;;;;;9.07;6.18;;;11.60;99.90;;;;;;5130628;28;20023;-77
2023/04/17 04:16:08;;;;;;;9.80;5.53;;;11.60;99.90;;;;;;5131406;28;20039;-73
2023/04/17 04:18:35;;;;;;;8.27;5.63;;;11.60;99.90;;;;;;5132384;27;20420;-74
2023/04/17 04:21:00;;;;;;;10.07;5.88;;;11.60;99.90;;;;;;5134570;27;20110;-74
2023/04/17 04:23:26;;;;;;;9.02;5.72;;;11.60;99.90;;;;;;5134816;27;20145;-75
2023/04/17 04:25:55;;;;;;;9.05;5.88;;;11.60;99.90;;;;;;5134445;27;20110;-74
2023/04/17 04:28:23;;;;;;;13.40;5.70;;;11.60;99.90;;;;;;5135222;27;20023;-74
2023/04/17 04:30:49;;;;;;;10.68;5.80;;;11.50;99.90;;;;;;5134463;27;20019;-74
2023/04/17 04:33:19;;;;;;;8.30;6.32;;;11.50;99.90;;;;;;5134999;27;20154;-74
2023/04/17 04:35:50;;;;;;;9.05;5.70;;;11.50;99.90;;;;;;5134421;27;20070;-74
2023/04/17 04:38:16;;;;;;;7.93;5.40;;;11.50;99.90;;;;;;5134943;27;20105;-74
2023/04/17 04:40:48;;;;;;;6.78;4.80;;;11.50;99.90;;;;;;5134766;27;20105;-77
2023/04/17 04:43:14;;;;;;;11.18;5.75;;;11.50;99.90;;;;;;5135432;27;20019;-73
2023/04/17 04:45:40;;;;;;;6.47;4.85;;;11.50;99.90;;;;;;5134461;27;20084;-73
2023/04/17 04:48:06;;;;;;;10.55;5.45;;;11.50;99.90;;;;;;5134078;27;20110;-74
2023/04/17 04:50:31;;;;;;;9.93;5.95;;;11.50;99.90;;;;;;5134637;27;20024;-74
2023/04/17 04:52:57;;;;;;;14.30;5.97;;;11.40;99.90;;;;;;5134301;27;20027;-74
2023/04/17 04:55:23;;;;;;;7.45;5.20;;;11.50;99.90;;;;;;5134485;27;20197;-75
2023/04/17 04:57:52;;;;;;;7.28;5.03;;;11.50;99.90;;;;;;5134001;27;20023;-75
2023/04/17 05:00:18;;;;;;;8.45;5.28;;;11.50;99.90;;;;;;5134282;27;20041;-74
2023/04/17 05:02:43;;;;;;;8.13;5.20;;;11.50;99.90;;;;;;5134177;27;20019;-77
2023/04/17 05:05:09;;;;;;;10.20;5.50;;;11.50;99.90;;;;;;5115879;27;20031;-74
2023/04/17 05:07:35;;;;;;;7.63;4.95;;;11.50;99.90;;;;;;5134298;27;20089;-74
2023/04/17 05:10:01;;;;;;;10.68;5.63;;;11.50;99.90;;;;;;5134209;27;20139;-74
2023/04/17 05:12:26;;;;;;;8.80;5.28;;;11.50;99.90;;;;;;5134284;27;20106;-74
2023/04/17 05:14:52;;;;;;;13.75;5.82;;;11.40;99.90;;;;;;5133739;27;20057;-75
2023/04/17 05:17:17;;;;;;;7.63;4.82;;;11.50;99.90;;;;;;5116155;27;20500;-75
2023/04/17 05:19:43;;;;;;;7.50;5.05;;;11.50;99.90;;;;;;5133617;27;20027;-77
2023/04/17 05:22:09;;;;;;;8.07;5.18;;;11.50;99.90;;;;;;5133595;27;20047;-75
2023/04/17 05:24:35;;;;;;;7.07;5.40;;;11.50;99.90;;;;;;5133857;27;20134;-74
2023/04/17 05:27:01;;;;;;;10.00;5.82;;;11.50;99.90;;;;;;5133239;27;20042;-74
2023/04/17 05:29:26;;;;;;;10.18;5.55;;;11.50;99.90;;;;;;5133166;27;20076;-74
2023/04/17 05:31:52;;;;;;;6.88;4.40;;;11.50;99.90;;;;;;5132778;27;20110;-75
2023/04/17 05:34:18;;;;;;;6.93;4.90;;;11.40;99.90;;;;;;5133554;27;20034;-74
2023/04/17 05:36:44;;;;;;;8.25;5.07;;;11.50;99.90;;;;;;5115244;27;20417;-74
2023/04/17 05:39:09;;;;;;;8.23;5.20;;;11.50;99.90;;;;;;5133425;27;20015;-73
2023/04/17 05:41:35;;;;;;;7.03;4.75;;;11.50;99.90;;;;;;5133534;27;20383;-74
2023/04/17 05:44:01;;;;;;;7.85;4.85;;;11.50;99.90;;;;;;5132845;27;20023;-74
2023/04/17 05:46:26;;;;;;;7.75;5.10;;;11.50;99.90;;;;;;5133221;27;20031;-74
2023/04/17 05:48:52;;;;;;;8.05;4.90;;;11.50;99.90;;;;;;5132739;27;20023;-75
2023/04/17 05:51:18;;;;;;;7.78;4.63;;;11.50;99.90;;;;;;5133083;27;20023;-74
2023/04/17 05:53:43;;;;;;;8.10;4.68;;;11.60;99.90;;;;;;5133376;27;20098;-73
2023/04/17 05:56:10;;;;;;;7.43;4.88;;;11.60;99.90;;;;;;5133252;27;20114;-75
2023/04/17 05:58:36;;;;;;;11.23;5.30;;;11.60;99.90;;;;;;5133615;27;20145;-75
2023/04/17 06:01:04;;;;;;;7.85;5.15;;;11.60;99.90;;;;;;5133173;27;20477;-74
2023/04/17 06:03:31;;;;;;;9.05;5.53;;;11.60;99.90;;;;;;5134290;27;20069;-74
2023/04/17 06:05:57;;;;;;;10.00;5.13;;;11.60;99.90;;;;;;5133524;27;20126;-75
2023/04/17 06:08:23;;;;;;;9.32;5.20;;;11.70;99.90;;;;;;5134174;27;20054;-75
2023/04/17 06:10:50;;;;;;;8.68;5.43;;;11.70;99.90;;;;;;5133031;27;20440;-77
2023/04/17 06:13:17;;;;;;;7.80;5.30;;;11.70;99.90;;;;;;5133598;27;20023;-74
2023/04/17 06:15:42;;;;;;;8.70;4.97;;;11.70;99.90;;;;;;5133462;27;20053;-73
2023/04/17 06:18:08;;;;;;;9.75;5.10;;;11.70;99.90;;;;;;5133071;27;20082;-74
2023/04/17 06:20:34;;;;;;;9.23;5.60;;;11.70;99.90;;;;;;5133124;27;20020;-75
2023/04/17 06:23:00;;;;;;;10.55;6.07;;;11.70;99.90;;;;;;5132690;27;20031;-74
2023/04/17 06:25:26;;;;;;;8.07;5.68;;;11.70;99.90;;;;;;5132983;27;20384;-75
2023/04/17 06:27:51;;;;;;;11.20;5.60;;;11.80;99.90;;;;;;5132370;27;20477;-74
2023/04/17 06:30:17;;;;;;;10.07;5.38;;;11.80;99.90;;;;;;5133105;27;20075;-76
2023/04/17 06:32:43;;;;;;;11.60;5.93;;;11.80;99.90;;;;;;5133018;27;20050;-74
2023/04/17 06:35:12;;;;;;;10.68;4.75;;;11.80;99.90;;;;;;5132432;27;20041;-75
2023/04/17 06:37:38;;;;;;;8.50;5.30;;;11.90;99.90;;;;;;5132325;27;20333;-73
2023/04/17 06:40:04;;;;;;;10.32;5.35;;;11.90;99.90;;;;;;5132296;27;20030;-74
2023/04/17 06:42:32;;;;;;;11.23;4.95;;;11.90;99.90;;;;;;5132060;27;20023;-74
2023/04/17 06:44:58;;;;;;;13.93;6.32;;;11.90;99.90;;;;;;5131716;27;20039;-74
2023/04/17 06:47:24;;;;;;;7.78;6.07;;;12.00;99.90;;;;;;5132433;27;20045;-75
2023/04/17 06:49:50;;;;;;;11.00;6.00;;;12.00;99.90;;;;;;5132426;27;20347;-77
2023/04/17 06:52:18;;;;;;;7.35;4.78;;;12.00;99.90;;;;;;5131737;27;20102;-74
2023/04/17 06:54:44;;;;;;;7.85;4.85;;;12.10;99.90;;;;;;5132343;27;20031;-74
2023/04/17 06:57:11;;;;;;;5.88;4.75;;;12.10;99.90;;;;;;5131844;27;20569;-75
2023/04/17 06:59:37;;;;;;;8.27;4.90;;;12.10;99.90;;;;;;5132008;27;20691;-74
2023/04/17 07:02:03;;;;;;;7.35;4.50;;;12.20;99.90;;;;;;5131669;27;20023;-74
2023/04/17 07:04:30;;;;;;;9.07;4.50;;;12.20;99.90;;;;;;5132074;27;20051;-74
2023/04/17 07:06:56;;;;;;;9.15;4.80;;;12.20;99.90;;;;;;5131348;27;20030;-75
2023/04/17 07:09:23;;;;;;;10.00;5.03;;;12.20;99.90;;;;;;5134596;27;20413;-75
2023/04/17 07:11:49;;;;;;;7.95;5.13;;;12.30;99.90;;;;;;5119707;27;20425;-73
2023/04/17 07:14:15;;;;;;;13.68;5.35;;;12.30;99.90;;;;;;5140171;27;20051;-74
2023/04/17 07:16:41;;;;;;;8.48;4.38;;;12.30;99.90;;;;;;5122262;27;20435;-74
2023/04/17 07:19:06;;;;;;;11.07;4.93;;;12.40;99.90;;;;;;5141618;27;20026;-75
2023/04/17 07:21:32;;;;;;;9.65;5.60;;;12.40;99.90;;;;;;5140211;27;20023;-75
2023/04/17 07:23:58;;;;;;;6.47;5.60;;;12.50;99.90;;;;;;5130701;27;20083;-74
2023/04/17 07:26:24;;;;;;;9.65;5.32;;;12.50;99.90;;;;;;5131785;27;20095;-75
2023/04/17 07:28:50;;;;;;;7.85;5.60;;;12.50;99.90;;;;;;5131628;27;20022;-75
2023/04/17 07:31:15;;;;;;;9.68;6.60;;;12.60;99.90;;;;;;5130671;27;20024;-74
2023/04/17 07:33:41;;;;;;;7.80;5.82;;;12.70;99.90;;;;;;5131671;27;20027;-74
2023/04/17 07:36:10;;;;;;;6.88;5.45;;;12.80;99.90;;;;;;5130960;27;20031;-75
2023/04/17 07:38:36;;;;;;;5.93;5.10;;;12.90;99.90;;;;;;5131581;27;20068;-74
2023/04/17 07:41:03;;;;;;;6.07;5.40;;;12.90;99.90;;;;;;5130669;27;20066;-74
2023/04/17 07:43:28;;;;;;;7.43;4.80;;;13.00;99.90;;;;;;5131334;27;20026;-73
2023/04/17 07:45:55;;;;;;;9.23;4.93;;;13.10;99.90;;;;;;5131094;27;20035;-77
2023/04/17 07:48:21;;;;;;;5.72;4.75;;;13.20;99.90;;;;;;5131727;27;20038;-75
2023/04/17 07:50:48;;;;;;;7.60;4.45;;;13.20;99.90;;;;;;5131452;28;20030;-74
2023/04/17 07:53:14;;;;;;;8.00;4.30;;;13.30;99.90;;;;;;5114856;27;20110;-74
2023/04/17 07:55:40;;;;;;;5.75;4.03;;;13.40;99.90;;;;;;5138203;27;20118;-74
2023/04/17 07:58:05;;;;;;;8.68;4.53;;;13.50;99.90;;;;;;5137618;27;20023;-74
2023/04/17 08:00:32;;;;;;;7.75;4.30;;;13.60;99.90;;;;;;5138160;27;20027;-74
2023/04/17 08:02:58;;;;;;;4.93;3.80;;;13.70;99.90;;;;;;5118714;27;20050;-75
2023/04/17 08:05:24;;;;;;;4.40;3.60;;;13.70;99.90;;;;;;5143675;27;20035;-74
2023/04/17 08:07:50;;;;;;;5.70;3.28;;;13.70;99.90;;;;;;5129378;27;20028;-75
2023/04/17 08:10:16;;;;;;;4.30;2.88;;;13.80;99.90;;;;;;5148037;27;20423;-75
2023/04/17 08:12:41;;;;;;;4.07;3.75;;;14.00;99.90;;;;;;5158308;27;20060;-75
2023/04/17 08:15:08;;;;;;;4.40;3.28;;;14.10;99.90;;;;;;5158469;27;20110;-75
2023/04/17 08:17:34;;;;;;;4.28;3.25;;;14.20;99.90;;;;;;5158843;27;20026;-75
2023/04/17 08:20:10;;;;;;;3.92;3.10;;;14.30;99.90;;;;;;5158406;27;20030;-74
2023/04/17 08:22:44;;;;;;;4.80;2.80;;;14.40;99.90;;;;;;5158748;27;20019;-73
2023/04/17 08:25:11;;;;;;;3.85;3.17;;;14.60;99.90;;;;;;5157561;27;20606;-74
2023/04/17 08:27:41;;;;;;;5.20;3.13;;;15.00;99.90;;;;;;5158335;27;20114;-73
2023/04/17 08:30:09;;;;;;;3.08;2.70;;;15.20;99.90;;;;;;5158302;27;20033;-74
2023/04/17 08:32:44;;;;;;;5.80;3.28;;;15.40;99.90;;;;;;5140076;27;20086;-76
2023/04/17 08:35:11;;;;;;;4.82;2.60;;;15.50;99.90;;;;;;5158488;27;20109;-76
2023/04/17 08:37:37;;;;;;;2.92;2.33;;;15.60;99.90;;;;;;5158854;27;20026;-75
2023/04/17 08:40:07;;;;;;;4.50;2.28;;;15.90;99.90;;;;;;5158271;27;20160;-73
2023/04/17 08:42:35;;;;;;;2.60;2.25;;;15.90;99.90;;;;;;5140403;27;20019;-75
2023/04/17 08:45:08;;;;;;;5.15;2.72;;;16.00;99.90;;;;;;5157889;27;20038;-73
2023/04/17 08:47:34;;;;;;;11.05;2.70;;;15.90;99.90;;;;;;5158704;27;20185;-75
2023/04/17 08:50:09;;;;;;;4.00;2.45;;;15.90;99.90;;;;;;5157925;27;20026;-77
2023/04/17 08:52:43;;;;;;;3.40;1.67;;;15.70;99.90;;;;;;5158940;27;20061;-74
2023/04/17 08:55:12;;;;;;;4.05;2.30;;;15.70;99.90;;;;;;5157726;27;20057;-74
2023/04/17 08:57:53;;;;;;;3.95;2.22;;;15.70;99.90;;;;;;5158531;27;20054;-74
2023/04/17 09:00:31;;;;;;;3.15;1.88;;;15.90;99.90;;;;;;5157660;27;20579;-75
2023/04/17 09:02:58;;;;;;;2.55;1.92;;;16.20;99.90;;;;;;5158497;27;20067;-75
2023/04/17 09:05:25;;;;;;;3.22;2.10;;;16.20;99.90;;;;;;5155646;27;20069;-74
2023/04/17 09:08:13;;;;;;;2.95;1.90;;;16.30;99.90;;;;;;5154866;27;20423;-74
2023/04/17 09:10:53;;;;;;;3.00;1.90;;;16.30;99.90;;;;;;5154927;27;20027;-75
2023/04/17 09:13:21;;;;;;;7.30;2.40;;;16.40;99.90;;;;;;5154043;27;20038;-75
2023/04/17 09:16:05;;;;;;;3.28;2.00;;;16.40;99.90;;;;;;5145081;27;20035;-75
2023/04/17 09:18:32;;;;;;;3.83;1.90;;;16.50;99.90;;;;;;5133701;27;20076;-75
2023/04/17 09:20:58;;;;;;;2.55;1.83;;;16.30;99.90;;;;;;5134111;27;20024;-74
2023/04/17 09:23:29;;;;;;;5.45;2.13;;;16.30;99.90;;;;;;5133590;27;20027;-74
2023/04/17 09:26:04;;;;;;;3.17;2.13;;;16.40;99.90;;;;;;5133670;27;20506;-75
2023/04/17 09:28:34;;;;;;;4.38;2.80;;;16.40;99.90;;;;;;5133990;27;20027;-75
2023/04/17 09:31:03;;;;;;;3.17;2.70;;;16.40;99.90;;;;;;5133733;27;20055;-77
2023/04/17 09:33:29;;;;;;;4.45;2.78;;;16.20;99.90;;;;;;5133835;27;20073;-75
2023/04/17 09:35:54;;;;;;;3.95;2.20;;;16.20;99.90;;;;;;5133595;27;20031;-74
2023/04/17 09:38:37;;;;;;;3.75;2.47;;;16.30;99.90;;;;;;5133064;27;20027;-75
2023/04/17 09:41:02;;;;;;;4.25;2.42;;;16.30;99.90;;;;;;5133059;27;20023;-78
2023/04/17 09:43:44;;;;;;;6.45;2.97;;;16.30;99.90;;;;;;5133486;27;20384;-75
2023/04/17 09:46:10;;;;;;;3.45;3.00;;;16.20;99.90;;;;;;5132667;27;20031;-75
2023/04/17 09:48:35;;;;;;;5.32;3.30;;;16.10;99.90;;;;;;5133378;27;20026;-75
2023/04/17 09:51:01;;;;;;;4.13;2.83;;;16.10;99.90;;;;;;5133027;27;20041;-77
2023/04/17 09:53:27;;;;;;;3.05;2.28;;;16.00;99.90;;;;;;5132884;27;20032;-73
2023/04/17 09:55:54;;;;;;;5.18;3.10;;;16.00;99.90;;;;;;5132775;27;20456;-75
2023/04/17 09:58:20;;;;;;;7.25;3.22;;;16.10;99.90;;;;;;5132656;27;20401;-76
2023/04/17 10:00:46;;;;;;;7.38;3.17;;;16.10;99.90;;;;;;5132950;27;20023;-76
2023/04/17 10:03:15;;;;;;;5.80;4.07;;;16.20;99.90;;;;;;5132251;27;20023;-76
2023/04/17 10:05:41;;;;;;;8.80;5.20;;;16.20;99.90;;;;;;5114542;27;20027;-74
2023/04/17 10:08:07;;;;;;;9.35;5.45;;;16.20;99.90;;;;;;5132489;27;20084;-75
2023/04/17 10:10:35;;;;;;;9.90;5.28;;;16.20;99.90;;;;;;5133159;27;20023;-75
2023/04/17 10:13:03;;;;;;;8.15;3.88;;;16.20;99.90;;;;;;5132742;27;20023;-75
2023/04/17 10:15:30;;;;;;;4.13;2.67;;;16.10;99.90;;;;;;5131604;27;20070;-76
2023/04/17 10:18:22;;;;;;;6.60;2.60;;;16.00;99.90;;;;;;5132564;27;20026;-75
2023/04/17 10:20:49;;;;;;;5.05;2.67;;;15.80;99.90;;;;;;5132931;27;20027;-75
2023/04/17 10:23:30;;;;;;;6.93;2.80;;;15.70;99.90;;;;;;5132031;27;20023;-75
2023/04/17 10:26:24;;;;;;;7.10;3.90;;;15.60;99.90;;;;;;5132909;27;20027;-75
2023/04/17 10:28:52;;;;;;;5.47;3.03;;;15.20;99.90;;;;;;5132290;27;20034;-74
2023/04/17 10:31:19;;;;;;;5.03;3.28;;;15.10;99.90;;;;;;5131991;27;20105;-75
2023/04/17 10:33:49;;;;;;;5.57;3.55;;;14.70;99.90;;;;;;5132620;27;20030;-75
2023/04/17 10:36:36;;;;;;;6.05;4.00;;;14.60;99.90;;;;;;5147341;27;20031;-74
2023/04/17 10:39:15;;;;;;;7.78;3.70;;;14.60;99.90;;;;;;5152974;27;20430;-74
2023/04/17 10:42:06;;;;;;;8.93;3.75;;;14.60;99.90;;;;;;5152702;27;20447;-75
2023/04/17 10:44:38;;;;;;;7.03;3.65;;;14.60;99.90;;;;;;5153150;27;20045;-74
2023/04/17 10:47:14;;;;;;;6.68;3.40;;;14.50;99.90;;;;;;5153258;27;20019;-75
2023/04/17 10:50:07;;;;;;;6.03;3.30;;;14.50;99.90;;;;;;5153273;27;20027;-74
2023/04/17 10:52:43;;;;;;;8.13;3.42;;;14.50;99.90;;;;;;5130622;27;20110;-74
2023/04/17 10:55:13;;;;;;;6.43;3.20;;;14.50;99.90;;;;;;5152687;27;20033;-75
2023/04/17 10:57:59;;;;;;;5.65;2.75;;;14.50;99.90;;;;;;5134197;27;20392;-75
2023/04/17 11:00:51;;;;;;;4.72;2.70;;;14.50;99.90;;;;;;5152508;27;20113;-75
2023/04/17 11:03:21;;;;;;;7.88;2.90;;;14.70;99.90;;;;;;5147170;27;20053;-74
2023/04/17 11:05:47;;;;;;;159.57;36.00;;;14.80;99.90;;;;;;5152650;27;20030;-75
2023/04/17 11:08:13;;;;;;;94.97;20.55;;;14.90;99.90;;;;;;5152269;27;20149;-74
2023/04/17 11:10:39;;;;;;;37.10;9.07;;;15.00;99.90;;;;;;5152399;27;20063;-75
2023/04/17 11:13:05;;;;;;;5.80;3.00;;;15.10;99.90;;;;;;5152600;27;20412;-75
2023/04/17 11:15:35;;;;;;;18.98;5.57;;;15.10;99.90;;;;;;5151814;27;20050;-76
2023/04/17 11:18:02;;;;;;;7.68;3.60;;;15.20;99.90;;;;;;5152308;27;20037;-75
2023/04/17 11:20:30;;;;;;;9.00;3.13;;;15.30;99.90;;;;;;5151944;27;20023;-74
2023/04/17 11:23:00;;;;;;;4.70;2.90;;;15.40;99.90;;;;;;5151874;27;20033;-75
2023/04/17 11:25:30;;;;;;;18.42;6.40;;;15.60;99.90;;;;;;5151387;27;20142;-74
2023/04/17 11:28:01;;;;;;;10.10;3.28;;;15.70;99.90;;;;;;5151517;27;20023;-74
2023/04/17 11:30:31;;;;;;;7.45;3.25;;;15.80;99.90;;;;;;5151852;27;20072;-75
2023/04/17 11:33:04;;;;;;;6.97;3.03;;;15.90;99.90;;;;;;5152152;27;20050;-75
2023/04/17 11:35:35;;;;;;;5.70;2.30;;;16.10;99.90;;;;;;5152084;27;20136;-75
2023/04/17 11:38:04;;;;;;;6.53;2.65;;;16.10;99.90;;;;;;5152392;27;20026;-74
2023/04/17 11:40:30;;;;;;;5.55;2.72;;;16.20;99.90;;;;;;5151720;27;20117;-75
2023/04/17 11:42:56;;;;;;;5.93;2.60;;;16.30;99.90;;;;;;5125163;27;20050;-75
2023/04/17 11:45:22;;;;;;;5.80;2.70;;;16.40;99.90;;;;;;5139751;27;20448;-75
2023/04/17 11:47:48;;;;;;;6.25;3.03;;;16.50;99.90;;;;;;5140449;27;20035;-75
2023/04/17 11:50:15;;;;;;;5.18;2.63;;;16.60;99.90;;;;;;5141840;27;20074;-75
2023/04/17 11:52:41;;;;;;;9.38;2.80;;;16.70;99.90;;;;;;5143974;27;20037;-75
2023/04/17 11:55:10;;;;;;;6.32;2.08;;;16.80;99.90;;;;;;5133488;28;20452;-74
2023/04/17 11:57:42;;;;;;;10.20;2.90;;;16.90;99.90;;;;;;5133030;28;20027;-74
2023/04/17 12:00:13;;;;;;;5.35;2.67;;;16.90;99.90;;;;;;5115412;28;20023;-75
2023/04/17 12:02:39;;;;;;;4.65;2.80;;;17.10;99.90;;;;;;5133825;28;20019;-74
2023/04/17 12:05:17;;;;;;;3.75;2.40;;;17.10;99.90;;;;;;5114629;28;20165;-75
2023/04/17 12:07:43;;;;;;;6.60;2.42;;;17.10;99.90;;;;;;5133150;28;20468;-74
2023/04/17 12:10:09;;;;;;;5.25;2.72;;;17.20;99.90;;;;;;5133642;28;20019;-76
2023/04/17 12:12:34;;;;;;;10.38;3.50;;;17.40;99.90;;;;;;5132343;28;20042;-76
2023/04/17 12:15:00;;;;;;;4.07;3.15;;;17.50;99.90;;;;;;5132519;28;20144;-75
2023/04/17 12:17:26;;;;;;;6.18;3.38;;;17.70;99.90;;;;;;5133943;28;20084;-76
2023/04/17 12:19:52;;;;;;;4.35;2.85;;;17.90;99.90;;;;;;5133770;28;20023;-75
2023/04/17 12:22:18;;;;;;;6.15;2.95;;;18.10;99.90;;;;;;5131439;28;20027;-75
2023/04/17 12:24:44;;;;;;;6.28;2.85;;;18.30;99.90;;;;;;5133221;27;20108;-76
2023/04/17 12:27:10;;;;;;;6.15;3.22;;;18.30;99.90;;;;;;5133146;28;20384;-75
2023/04/17 12:29:35;;;;;;;9.27;3.30;;;18.40;99.90;;;;;;5131573;28;20130;-76
2023/04/17 12:32:01;;;;;;;5.25;3.40;;;18.50;99.90;;;;;;5131875;28;20023;-74
2023/04/17 12:34:27;;;;;;;6.45;3.20;;;18.50;99.90;;;;;;5131465;28;20023;-74
2023/04/17 12:36:52;;;;;;;8.75;3.45;;;18.50;99.90;;;;;;5125142;27;20038;-75
2023/04/17 12:39:18;;;;;;;5.97;3.35;;;18.70;99.90;;;;;;5141072;27;20022;-75
2023/04/17 12:41:44;;;;;;;6.80;3.30;;;18.70;99.90;;;;;;5150210;27;20033;-75
2023/04/17 12:44:15;;;;;;;14.15;4.03;;;18.80;99.90;;;;;;5144838;27;20360;-75
2023/04/17 12:46:41;;;;;;;7.60;3.78;;;18.80;99.90;;;;;;5128263;27;20467;-75